IBE945 LEMD-LDSP
Flight info
| Callsign | IBE945 |
|---|---|
| Flight time | 2h 11m |
| Altitude | 38000 |
| Route | NANDO M871 MABUX T257 LASPO M871 PTC DCT MHN DCT MORSS DCT BAVON DCT ORKUM DCT ELSAG DCT ALG DCT VAPUP |
| Aircraft | A20N/M-SDE2E3FGHIRWXY/LB1 |
Departure
| Time | 2026-05-06 10:08 |
|---|---|
| Airport | Adolfo Suárez Madrid–Barajas Airport (LEMD) |
Arrival
| Time | 2026-05-06 12:20 |
|---|---|
| Airport | Split Saint Jerome Airport (LDSP) |
| Time | Latitude | Longitude | Altitude | Speed | Heading |
|---|---|---|---|---|---|
| 2026-05-06 09:23 | 40.47227 | -3.57029 | 1965 ft | 0 kts | 261° |
| 2026-05-06 09:46 | 40.47228 | -3.57026 | 1965 ft | 3 kts | 261° |
| 2026-05-06 09:46 | 40.47231 | -3.56995 | 1969 ft | 3 kts | 266° |
| 2026-05-06 09:46 | 40.47231 | -3.56963 | 1971 ft | 3 kts | 279° |
| 2026-05-06 09:47 | 40.47224 | -3.56935 | 1970 ft | 3 kts | 317° |
| 2026-05-06 09:47 | 40.47212 | -3.56926 | 1966 ft | 1 kts | 354° |
| 2026-05-06 09:47 | 40.47210 | -3.56926 | 1972 ft | 0 kts | 354° |
| 2026-05-06 09:58 | 40.47209 | -3.56926 | 1964 ft | 0 kts | 354° |
| 2026-05-06 09:59 | 40.47238 | -3.56928 | 1965 ft | 11 kts | 357° |
| 2026-05-06 10:00 | 40.47314 | -3.56883 | 1971 ft | 5 kts | 43° |
| 2026-05-06 10:00 | 40.47343 | -3.56850 | 1966 ft | 5 kts | 28° |
| 2026-05-06 10:00 | 40.47376 | -3.56860 | 1967 ft | 7 kts | 328° |
| 2026-05-06 10:00 | 40.47439 | -3.56924 | 1968 ft | 15 kts | 322° |
| 2026-05-06 10:01 | 40.47524 | -3.57014 | 1970 ft | 15 kts | 322° |
| 2026-05-06 10:01 | 40.47601 | -3.57090 | 1974 ft | 13 kts | 320° |
| 2026-05-06 10:01 | 40.47664 | -3.57158 | 1973 ft | 11 kts | 321° |
| 2026-05-06 10:01 | 40.47724 | -3.57216 | 1975 ft | 10 kts | 323° |
| 2026-05-06 10:02 | 40.47782 | -3.57278 | 1977 ft | 11 kts | 321° |
| 2026-05-06 10:02 | 40.47846 | -3.57346 | 1980 ft | 13 kts | 321° |
| 2026-05-06 10:02 | 40.47922 | -3.57415 | 1978 ft | 15 kts | 325° |
| 2026-05-06 10:02 | 40.48008 | -3.57505 | 1983 ft | 17 kts | 321° |
| 2026-05-06 10:03 | 40.48108 | -3.57605 | 1983 ft | 19 kts | 323° |
| 2026-05-06 10:03 | 40.48214 | -3.57714 | 1984 ft | 20 kts | 322° |
| 2026-05-06 10:03 | 40.48325 | -3.57826 | 1986 ft | 19 kts | 323° |
| 2026-05-06 10:03 | 40.48377 | -3.57873 | 1986 ft | 10 kts | 327° |
| 2026-05-06 10:04 | 40.48447 | -3.57932 | 1983 ft | 14 kts | 327° |
| 2026-05-06 10:04 | 40.48546 | -3.58015 | 1978 ft | 20 kts | 327° |
| 2026-05-06 10:04 | 40.48603 | -3.58050 | 1978 ft | 4 kts | 346° |
| 2026-05-06 10:04 | 40.48681 | -3.58056 | 1973 ft | 16 kts | 359° |
| 2026-05-06 10:05 | 40.48809 | -3.58055 | 1959 ft | 22 kts | 1° |
| 2026-05-06 10:05 | 40.48845 | -3.58035 | 1958 ft | 11 kts | 39° |
| 2026-05-06 10:05 | 40.48856 | -3.57906 | 1953 ft | 6 kts | 93° |
| 2026-05-06 10:05 | 40.48860 | -3.57821 | 1951 ft | 21 kts | 96° |
| 2026-05-06 10:06 | 40.48919 | -3.57726 | 1941 ft | 25 kts | 358° |
| 2026-05-06 10:06 | 40.49095 | -3.57729 | 1928 ft | 14 kts | 359° |
| 2026-05-06 10:06 | 40.49171 | -3.57661 | 1924 ft | 16 kts | 81° |
| 2026-05-06 10:06 | 40.49182 | -3.57606 | 1923 ft | 3 kts | 69° |
| 2026-05-06 10:07 | 40.49203 | -3.57547 | 1923 ft | 11 kts | 64° |
| 2026-05-06 10:07 | 40.49266 | -3.57460 | 1924 ft | 14 kts | 4° |
| 2026-05-06 10:07 | 40.49382 | -3.57462 | 1925 ft | 24 kts | 359° |
| 2026-05-06 10:07 | 40.49754 | -3.57463 | 1930 ft | 93 kts | 0° |
| 2026-05-06 10:08 | 40.50654 | -3.57471 | 2060 ft | 152 kts | 360° |
| 2026-05-06 10:08 | 40.51728 | -3.57473 | 2867 ft | 157 kts | 1° |
| 2026-05-06 10:08 | 40.52848 | -3.57460 | 3754 ft | 166 kts | 0° |
| 2026-05-06 10:08 | 40.54064 | -3.57472 | 4560 ft | 183 kts | 358° |
| 2026-05-06 10:09 | 40.55407 | -3.57511 | 5329 ft | 203 kts | 2° |
| 2026-05-06 10:09 | 40.56861 | -3.57167 | 6137 ft | 223 kts | 17° |
| 2026-05-06 10:09 | 40.58350 | -3.56430 | 7036 ft | 238 kts | 19° |
| 2026-05-06 10:09 | 40.59937 | -3.55725 | 8047 ft | 239 kts | 16° |
| 2026-05-06 10:10 | 40.61549 | -3.55076 | 8518 ft | 246 kts | 16° |
| 2026-05-06 10:10 | 40.63207 | -3.54436 | 9093 ft | 250 kts | 12° |
| 2026-05-06 10:10 | 40.64924 | -3.54118 | 9788 ft | 251 kts | 2° |
| 2026-05-06 10:10 | 40.66676 | -3.53987 | 10496 ft | 253 kts | 3° |
| 2026-05-06 10:11 | 40.68448 | -3.53691 | 11111 ft | 266 kts | 17° |
| 2026-05-06 10:11 | 40.70097 | -3.52406 | 11483 ft | 290 kts | 44° |
| 2026-05-06 10:11 | 40.71262 | -3.50122 | 11851 ft | 315 kts | 68° |
| 2026-05-06 10:11 | 40.71673 | -3.47228 | 12194 ft | 339 kts | 90° |
| 2026-05-06 10:12 | 40.71162 | -3.44148 | 12877 ft | 351 kts | 113° |
| 2026-05-06 10:12 | 40.69790 | -3.41482 | 13733 ft | 358 kts | 134° |
| 2026-05-06 10:12 | 40.67832 | -3.39430 | 14470 ft | 364 kts | 144° |
| 2026-05-06 10:12 | 40.65814 | -3.37382 | 15270 ft | 368 kts | 139° |
| 2026-05-06 10:13 | 40.63953 | -3.35032 | 15984 ft | 374 kts | 133° |
| 2026-05-06 10:13 | 40.62252 | -3.32409 | 16700 ft | 380 kts | 128° |
| 2026-05-06 10:13 | 40.60644 | -3.29617 | 17398 ft | 386 kts | 126° |
| 2026-05-06 10:13 | 40.59068 | -3.26727 | 18108 ft | 392 kts | 126° |
| 2026-05-06 10:14 | 40.57506 | -3.23814 | 18715 ft | 397 kts | 126° |
| 2026-05-06 10:14 | 40.55902 | -3.20825 | 19349 ft | 402 kts | 126° |
| 2026-05-06 10:14 | 40.54279 | -3.17813 | 19982 ft | 406 kts | 127° |
| 2026-05-06 10:14 | 40.52630 | -3.14766 | 20593 ft | 411 kts | 127° |
| 2026-05-06 10:15 | 40.50960 | -3.11687 | 21189 ft | 416 kts | 128° |
| 2026-05-06 10:15 | 40.49270 | -3.08580 | 21806 ft | 421 kts | 128° |
| 2026-05-06 10:15 | 40.47558 | -3.05437 | 22404 ft | 425 kts | 128° |
| 2026-05-06 10:15 | 40.45824 | -3.02255 | 22946 ft | 431 kts | 129° |
| 2026-05-06 10:16 | 40.44093 | -2.99082 | 23550 ft | 435 kts | 129° |
| 2026-05-06 10:16 | 40.42321 | -2.95841 | 24020 ft | 439 kts | 129° |
| 2026-05-06 10:16 | 40.40534 | -2.92576 | 24544 ft | 442 kts | 129° |
| 2026-05-06 10:16 | 40.38745 | -2.89308 | 25033 ft | 445 kts | 130° |
| 2026-05-06 10:17 | 40.36926 | -2.85992 | 25517 ft | 448 kts | 130° |
| 2026-05-06 10:17 | 40.35098 | -2.82662 | 26000 ft | 451 kts | 130° |
| 2026-05-06 10:17 | 40.33257 | -2.79315 | 26472 ft | 455 kts | 130° |
| 2026-05-06 10:17 | 40.31400 | -2.75941 | 26954 ft | 458 kts | 130° |
| 2026-05-06 10:18 | 40.29529 | -2.72546 | 27396 ft | 461 kts | 130° |
| 2026-05-06 10:18 | 40.27671 | -2.69177 | 27839 ft | 464 kts | 130° |
| 2026-05-06 10:18 | 40.25776 | -2.65743 | 28248 ft | 467 kts | 130° |
| 2026-05-06 10:18 | 40.23863 | -2.62283 | 28642 ft | 470 kts | 130° |
| 2026-05-06 10:19 | 40.21944 | -2.58814 | 29012 ft | 473 kts | 131° |
| 2026-05-06 10:19 | 40.20006 | -2.55316 | 29385 ft | 476 kts | 131° |
| 2026-05-06 10:19 | 40.18056 | -2.51801 | 29761 ft | 479 kts | 131° |
| 2026-05-06 10:19 | 40.16093 | -2.48265 | 30112 ft | 482 kts | 131° |
| 2026-05-06 10:20 | 40.14118 | -2.44713 | 30463 ft | 484 kts | 131° |
| 2026-05-06 10:20 | 40.12160 | -2.41194 | 30777 ft | 486 kts | 131° |
| 2026-05-06 10:20 | 40.10165 | -2.37611 | 31125 ft | 488 kts | 131° |
| 2026-05-06 10:20 | 40.08167 | -2.34027 | 31521 ft | 489 kts | 131° |
| 2026-05-06 10:21 | 40.06165 | -2.30440 | 31955 ft | 488 kts | 131° |
| 2026-05-06 10:21 | 40.04165 | -2.26861 | 32363 ft | 488 kts | 131° |
| 2026-05-06 10:21 | 40.02165 | -2.23286 | 32763 ft | 488 kts | 131° |
| 2026-05-06 10:21 | 40.00253 | -2.19618 | 33150 ft | 492 kts | 126° |
| 2026-05-06 10:22 | 39.98673 | -2.15643 | 33544 ft | 497 kts | 118° |
| 2026-05-06 10:22 | 39.97464 | -2.11405 | 33919 ft | 501 kts | 110° |
| 2026-05-06 10:22 | 39.96481 | -2.07110 | 34247 ft | 501 kts | 110° |
| 2026-05-06 10:22 | 39.95483 | -2.02767 | 34585 ft | 500 kts | 110° |
| 2026-05-06 10:23 | 39.94481 | -1.98438 | 34928 ft | 499 kts | 111° |
| 2026-05-06 10:23 | 39.93476 | -1.94122 | 35250 ft | 498 kts | 111° |
| 2026-05-06 10:23 | 39.92469 | -1.89811 | 35545 ft | 497 kts | 111° |
| 2026-05-06 10:23 | 39.91460 | -1.85500 | 35855 ft | 497 kts | 111° |
| 2026-05-06 10:24 | 39.90451 | -1.81205 | 36137 ft | 496 kts | 111° |
| 2026-05-06 10:24 | 39.89440 | -1.76905 | 36435 ft | 495 kts | 111° |
| 2026-05-06 10:24 | 39.88433 | -1.72630 | 36717 ft | 494 kts | 111° |
| 2026-05-06 10:24 | 39.87437 | -1.68411 | 37005 ft | 494 kts | 111° |
| 2026-05-06 10:25 | 39.86427 | -1.64140 | 37289 ft | 493 kts | 111° |
| 2026-05-06 10:25 | 39.85418 | -1.59879 | 37552 ft | 492 kts | 111° |
| 2026-05-06 10:25 | 39.84410 | -1.55633 | 37831 ft | 491 kts | 111° |
| 2026-05-06 10:25 | 39.83402 | -1.51389 | 37955 ft | 491 kts | 111° |
| 2026-05-06 10:26 | 39.81388 | -1.42931 | 37992 ft | 488 kts | 111° |
| 2026-05-06 10:26 | 39.79069 | -1.34745 | 37993 ft | 482 kts | 124° |
| 2026-05-06 10:27 | 39.77247 | -1.31130 | 38007 ft | 474 kts | 135° |
| 2026-05-06 10:27 | 39.75016 | -1.28034 | 38015 ft | 464 kts | 145° |
| 2026-05-06 10:27 | 39.69694 | -1.23616 | 38035 ft | 449 kts | 163° |
| 2026-05-06 10:28 | 39.63990 | -1.20295 | 38035 ft | 450 kts | 162° |
| 2026-05-06 10:28 | 39.58388 | -1.16744 | 38014 ft | 457 kts | 154° |
| 2026-05-06 10:29 | 39.53559 | -1.11213 | 37989 ft | 474 kts | 135° |
| 2026-05-06 10:29 | 39.51681 | -1.07678 | 37989 ft | 482 kts | 124° |
| 2026-05-06 10:29 | 39.50039 | -1.03883 | 37974 ft | 483 kts | 124° |
| 2026-05-06 10:30 | 39.46742 | -0.96315 | 37967 ft | 483 kts | 125° |
| 2026-05-06 10:30 | 39.43422 | -0.88756 | 37962 ft | 483 kts | 125° |
| 2026-05-06 10:31 | 39.40127 | -0.81236 | 37971 ft | 484 kts | 125° |
| 2026-05-06 10:31 | 39.36819 | -0.73746 | 37966 ft | 484 kts | 125° |
| 2026-05-06 10:32 | 39.33552 | -0.66377 | 37957 ft | 484 kts | 125° |
| 2026-05-06 10:32 | 39.30328 | -0.58731 | 37962 ft | 489 kts | 117° |
| 2026-05-06 10:33 | 39.28695 | -0.50138 | 37962 ft | 501 kts | 96° |
| 2026-05-06 10:33 | 39.28956 | -0.41177 | 37962 ft | 504 kts | 88° |
| 2026-05-06 10:34 | 39.29451 | -0.32152 | 37965 ft | 504 kts | 88° |
| 2026-05-06 10:34 | 39.29924 | -0.23116 | 37973 ft | 505 kts | 88° |
| 2026-05-06 10:35 | 39.30390 | -0.14067 | 37973 ft | 505 kts | 88° |
| 2026-05-06 10:35 | 39.30833 | -0.05304 | 37978 ft | 505 kts | 88° |
| 2026-05-06 10:36 | 39.31285 | 0.03732 | 37970 ft | 504 kts | 88° |
| 2026-05-06 10:36 | 39.31728 | 0.12746 | 37969 ft | 503 kts | 88° |
| 2026-05-06 10:37 | 39.32160 | 0.21698 | 37972 ft | 503 kts | 88° |
| 2026-05-06 10:37 | 39.32589 | 0.30709 | 37972 ft | 503 kts | 89° |
| 2026-05-06 10:38 | 39.33010 | 0.39719 | 37959 ft | 503 kts | 89° |
| 2026-05-06 10:38 | 39.33426 | 0.48738 | 37976 ft | 503 kts | 89° |
| 2026-05-06 10:39 | 39.33833 | 0.57766 | 37975 ft | 504 kts | 89° |
| 2026-05-06 10:39 | 39.34232 | 0.66745 | 37975 ft | 504 kts | 89° |
| 2026-05-06 10:40 | 39.34627 | 0.75787 | 37981 ft | 504 kts | 89° |
| 2026-05-06 10:40 | 39.35013 | 0.84787 | 37969 ft | 500 kts | 89° |
| 2026-05-06 10:41 | 39.35390 | 0.93746 | 37969 ft | 501 kts | 89° |
| 2026-05-06 10:41 | 39.35758 | 1.02667 | 37973 ft | 500 kts | 89° |
| 2026-05-06 10:42 | 39.36122 | 1.11640 | 37960 ft | 500 kts | 89° |
| 2026-05-06 10:42 | 39.36479 | 1.20614 | 37957 ft | 500 kts | 89° |
| 2026-05-06 10:43 | 39.36829 | 1.29593 | 37956 ft | 500 kts | 89° |
| 2026-05-06 10:44 | 39.37340 | 1.43010 | 37964 ft | 501 kts | 90° |
| 2026-05-06 10:44 | 39.37672 | 1.52008 | 37956 ft | 501 kts | 90° |
| 2026-05-06 10:45 | 39.37998 | 1.60999 | 37954 ft | 501 kts | 90° |
| 2026-05-06 10:45 | 39.38315 | 1.69948 | 37961 ft | 501 kts | 90° |
| 2026-05-06 10:46 | 39.38624 | 1.78877 | 37964 ft | 501 kts | 90° |
| 2026-05-06 10:46 | 39.38930 | 1.87875 | 37967 ft | 500 kts | 90° |
| 2026-05-06 10:47 | 39.39228 | 1.96847 | 37969 ft | 500 kts | 90° |
| 2026-05-06 10:47 | 39.39515 | 2.05705 | 37969 ft | 499 kts | 90° |
| 2026-05-06 10:48 | 39.39798 | 2.14668 | 37957 ft | 499 kts | 90° |
| 2026-05-06 10:48 | 39.40073 | 2.23571 | 37954 ft | 499 kts | 90° |
| 2026-05-06 10:49 | 39.40341 | 2.32463 | 37948 ft | 498 kts | 90° |
| 2026-05-06 10:49 | 39.40603 | 2.41403 | 37944 ft | 497 kts | 90° |
| 2026-05-06 10:50 | 39.40858 | 2.50338 | 37938 ft | 497 kts | 91° |
| 2026-05-06 10:50 | 39.41105 | 2.59213 | 37936 ft | 497 kts | 91° |
| 2026-05-06 10:51 | 39.41346 | 2.68140 | 37919 ft | 497 kts | 91° |
| 2026-05-06 10:51 | 39.41580 | 2.77060 | 37935 ft | 497 kts | 91° |
| 2026-05-06 10:52 | 39.41807 | 2.85948 | 37940 ft | 496 kts | 91° |
| 2026-05-06 10:52 | 39.42028 | 2.94868 | 37962 ft | 497 kts | 91° |
| 2026-05-06 10:53 | 39.42240 | 3.03733 | 37961 ft | 497 kts | 91° |
| 2026-05-06 10:53 | 39.42447 | 3.12669 | 37960 ft | 497 kts | 91° |
| 2026-05-06 10:54 | 39.42859 | 3.21598 | 37963 ft | 500 kts | 82° |
| 2026-05-06 10:54 | 39.44927 | 3.30167 | 37960 ft | 502 kts | 64° |
| 2026-05-06 10:55 | 39.48388 | 3.37927 | 37959 ft | 501 kts | 58° |
| 2026-05-06 10:55 | 39.51954 | 3.45683 | 37963 ft | 502 kts | 58° |
| 2026-05-06 10:56 | 39.55519 | 3.53467 | 37963 ft | 503 kts | 59° |
| 2026-05-06 10:56 | 39.59082 | 3.61267 | 37967 ft | 503 kts | 59° |
| 2026-05-06 10:57 | 39.62616 | 3.69019 | 37972 ft | 503 kts | 59° |
| 2026-05-06 10:57 | 39.66173 | 3.76841 | 37973 ft | 503 kts | 59° |
| 2026-05-06 10:58 | 39.69725 | 3.84671 | 37974 ft | 503 kts | 59° |
| 2026-05-06 10:58 | 39.73277 | 3.92522 | 37973 ft | 504 kts | 59° |
| 2026-05-06 10:59 | 39.76821 | 4.00371 | 37972 ft | 504 kts | 59° |
| 2026-05-06 10:59 | 39.80340 | 4.08189 | 37972 ft | 504 kts | 59° |
| 2026-05-06 11:00 | 39.83877 | 4.16066 | 37967 ft | 504 kts | 59° |
| 2026-05-06 11:00 | 39.86816 | 4.24321 | 37966 ft | 503 kts | 72° |
| 2026-05-06 11:01 | 39.88727 | 4.33063 | 37968 ft | 502 kts | 76° |
| 2026-05-06 11:01 | 39.90545 | 4.41769 | 37968 ft | 502 kts | 76° |
| 2026-05-06 11:02 | 39.92366 | 4.50545 | 37969 ft | 502 kts | 76° |
| 2026-05-06 11:02 | 39.94173 | 4.59322 | 38000 ft | 501 kts | 77° |
| 2026-05-06 11:03 | 39.95972 | 4.68098 | 37979 ft | 501 kts | 76° |
| 2026-05-06 11:03 | 39.97939 | 4.76760 | 37979 ft | 502 kts | 74° |
| 2026-05-06 11:04 | 39.99965 | 4.85462 | 37978 ft | 502 kts | 75° |
| 2026-05-06 11:04 | 40.01962 | 4.94199 | 37985 ft | 503 kts | 75° |
| 2026-05-06 11:05 | 40.03942 | 5.02934 | 37982 ft | 502 kts | 75° |
| 2026-05-06 11:05 | 40.05897 | 5.11604 | 37979 ft | 501 kts | 75° |
| 2026-05-06 11:06 | 40.07857 | 5.20328 | 37974 ft | 500 kts | 75° |
| 2026-05-06 11:06 | 40.09810 | 5.29053 | 37971 ft | 500 kts | 75° |
| 2026-05-06 11:07 | 40.11754 | 5.37767 | 37975 ft | 499 kts | 75° |
| 2026-05-06 11:07 | 40.13686 | 5.46470 | 37970 ft | 499 kts | 76° |
| 2026-05-06 11:08 | 40.15599 | 5.55119 | 37972 ft | 499 kts | 76° |
| 2026-05-06 11:08 | 40.17520 | 5.63836 | 37972 ft | 499 kts | 76° |
| 2026-05-06 11:09 | 40.19433 | 5.72554 | 37960 ft | 498 kts | 76° |
| 2026-05-06 11:09 | 40.21336 | 5.81259 | 37983 ft | 497 kts | 76° |
| 2026-05-06 11:10 | 40.23217 | 5.89900 | 37976 ft | 497 kts | 76° |
| 2026-05-06 11:10 | 40.25101 | 5.98587 | 37974 ft | 496 kts | 76° |
| 2026-05-06 11:11 | 40.26979 | 6.07279 | 37970 ft | 496 kts | 76° |
| 2026-05-06 11:11 | 40.28844 | 6.15953 | 37979 ft | 494 kts | 76° |
| 2026-05-06 11:12 | 40.30689 | 6.24559 | 37981 ft | 494 kts | 76° |
| 2026-05-06 11:12 | 40.32543 | 6.33239 | 37971 ft | 494 kts | 77° |
| 2026-05-06 11:13 | 40.34387 | 6.41914 | 37969 ft | 494 kts | 77° |
| 2026-05-06 11:13 | 40.36223 | 6.50587 | 37969 ft | 494 kts | 76° |
| 2026-05-06 11:14 | 40.38041 | 6.59209 | 37971 ft | 494 kts | 77° |
| 2026-05-06 11:14 | 40.39866 | 6.67892 | 37970 ft | 494 kts | 77° |
| 2026-05-06 11:15 | 40.41684 | 6.76583 | 37971 ft | 494 kts | 77° |
| 2026-05-06 11:15 | 40.43494 | 6.85272 | 37952 ft | 494 kts | 77° |
| 2026-05-06 11:16 | 40.45285 | 6.93910 | 37974 ft | 493 kts | 77° |
| 2026-05-06 11:16 | 40.47080 | 7.02597 | 37975 ft | 493 kts | 77° |
| 2026-05-06 11:17 | 40.48871 | 7.11302 | 37976 ft | 493 kts | 77° |
| 2026-05-06 11:17 | 40.50655 | 7.20009 | 37975 ft | 493 kts | 77° |
| 2026-05-06 11:18 | 40.52421 | 7.28665 | 37975 ft | 493 kts | 77° |
| 2026-05-06 11:18 | 40.54192 | 7.37381 | 37975 ft | 493 kts | 77° |
| 2026-05-06 11:19 | 40.55937 | 7.46075 | 37970 ft | 493 kts | 79° |
| 2026-05-06 11:19 | 40.56968 | 7.54943 | 37971 ft | 490 kts | 86° |
| 2026-05-06 11:20 | 40.57736 | 7.63844 | 37966 ft | 490 kts | 86° |
| 2026-05-06 11:20 | 40.58504 | 7.72692 | 37970 ft | 490 kts | 86° |
| 2026-05-06 11:21 | 40.59265 | 7.81602 | 37970 ft | 490 kts | 86° |
| 2026-05-06 11:21 | 40.60018 | 7.90529 | 37978 ft | 491 kts | 86° |
| 2026-05-06 11:22 | 40.60764 | 7.99458 | 37977 ft | 491 kts | 86° |
| 2026-05-06 11:22 | 40.61500 | 8.08326 | 37989 ft | 491 kts | 86° |
| 2026-05-06 11:23 | 40.62246 | 8.17258 | 38000 ft | 492 kts | 85° |
| 2026-05-06 11:23 | 40.63844 | 8.26053 | 38003 ft | 496 kts | 72° |
| 2026-05-06 11:24 | 40.66714 | 8.34321 | 38003 ft | 498 kts | 63° |
| 2026-05-06 11:24 | 40.69862 | 8.42373 | 37984 ft | 498 kts | 63° |
| 2026-05-06 11:25 | 40.73026 | 8.50495 | 37970 ft | 498 kts | 63° |
| 2026-05-06 11:25 | 40.76193 | 8.58622 | 37974 ft | 499 kts | 63° |
| 2026-05-06 11:26 | 40.79359 | 8.66769 | 37975 ft | 499 kts | 64° |
| 2026-05-06 11:26 | 40.82524 | 8.74943 | 37974 ft | 498 kts | 63° |
| 2026-05-06 11:27 | 40.85638 | 8.83015 | 37972 ft | 497 kts | 64° |
| 2026-05-06 11:27 | 40.88778 | 8.91174 | 37972 ft | 498 kts | 64° |
| 2026-05-06 11:28 | 40.91906 | 8.99325 | 37966 ft | 498 kts | 64° |
| 2026-05-06 11:28 | 40.95036 | 9.07504 | 37968 ft | 498 kts | 64° |
| 2026-05-06 11:29 | 40.98127 | 9.15606 | 37977 ft | 497 kts | 64° |
| 2026-05-06 11:29 | 41.01231 | 9.23762 | 37956 ft | 495 kts | 64° |
| 2026-05-06 11:30 | 41.04323 | 9.31911 | 37963 ft | 496 kts | 64° |
| 2026-05-06 11:30 | 41.07425 | 9.40109 | 37973 ft | 498 kts | 64° |
| 2026-05-06 11:31 | 41.10492 | 9.48236 | 37952 ft | 495 kts | 64° |
| 2026-05-06 11:31 | 41.13562 | 9.56398 | 37971 ft | 495 kts | 64° |
| 2026-05-06 11:32 | 41.16630 | 9.64571 | 37972 ft | 495 kts | 64° |
| 2026-05-06 11:32 | 41.19671 | 9.72698 | 37961 ft | 494 kts | 64° |
| 2026-05-06 11:33 | 41.22623 | 9.80611 | 37960 ft | 494 kts | 64° |
| 2026-05-06 11:33 | 41.25667 | 9.88791 | 37977 ft | 494 kts | 64° |
| 2026-05-06 11:34 | 41.28705 | 9.96978 | 37978 ft | 494 kts | 64° |
| 2026-05-06 11:34 | 41.31739 | 10.05179 | 37977 ft | 494 kts | 64° |
| 2026-05-06 11:35 | 41.34747 | 10.13330 | 37980 ft | 494 kts | 64° |
| 2026-05-06 11:35 | 41.37763 | 10.21530 | 37961 ft | 493 kts | 65° |
| 2026-05-06 11:36 | 41.40758 | 10.29694 | 37963 ft | 490 kts | 65° |
| 2026-05-06 11:36 | 41.43747 | 10.37866 | 37980 ft | 491 kts | 65° |
| 2026-05-06 11:37 | 41.46708 | 10.45984 | 37980 ft | 490 kts | 65° |
| 2026-05-06 11:37 | 41.49686 | 10.54172 | 37954 ft | 491 kts | 65° |
| 2026-05-06 11:38 | 41.52657 | 10.62359 | 37976 ft | 490 kts | 65° |
| 2026-05-06 11:38 | 41.55621 | 10.70555 | 37975 ft | 490 kts | 65° |
| 2026-05-06 11:39 | 41.58556 | 10.78694 | 37979 ft | 489 kts | 65° |
| 2026-05-06 11:39 | 41.61502 | 10.86887 | 37982 ft | 489 kts | 65° |
| 2026-05-06 11:40 | 41.64440 | 10.95083 | 37968 ft | 489 kts | 65° |
| 2026-05-06 11:40 | 41.67371 | 11.03281 | 37982 ft | 489 kts | 66° |
| 2026-05-06 11:41 | 41.70301 | 11.11499 | 37974 ft | 489 kts | 66° |
| 2026-05-06 11:41 | 41.73200 | 11.19656 | 37971 ft | 489 kts | 66° |
| 2026-05-06 11:42 | 41.76112 | 11.27874 | 37970 ft | 489 kts | 66° |
| 2026-05-06 11:42 | 41.79020 | 11.36102 | 37978 ft | 488 kts | 66° |
| 2026-05-06 11:43 | 41.81920 | 11.44333 | 37969 ft | 489 kts | 66° |
| 2026-05-06 11:43 | 41.84798 | 11.52526 | 37982 ft | 489 kts | 66° |
| 2026-05-06 11:44 | 41.89134 | 11.64915 | 37989 ft | 489 kts | 66° |
| 2026-05-06 11:44 | 41.92003 | 11.73143 | 37985 ft | 489 kts | 66° |
| 2026-05-06 11:45 | 41.94881 | 11.81420 | 37988 ft | 490 kts | 66° |
| 2026-05-06 11:45 | 41.97738 | 11.89662 | 37985 ft | 490 kts | 66° |
| 2026-05-06 11:46 | 42.00612 | 11.97975 | 37984 ft | 490 kts | 66° |
| 2026-05-06 11:46 | 42.03476 | 12.06287 | 37965 ft | 489 kts | 66° |
| 2026-05-06 11:47 | 42.06321 | 12.14563 | 37972 ft | 487 kts | 66° |
| 2026-05-06 11:47 | 42.09155 | 12.22840 | 38013 ft | 487 kts | 66° |
| 2026-05-06 11:48 | 42.11963 | 12.31065 | 38015 ft | 487 kts | 66° |
| 2026-05-06 11:48 | 42.14790 | 12.39367 | 38010 ft | 487 kts | 67° |
| 2026-05-06 11:49 | 42.17607 | 12.47664 | 38008 ft | 487 kts | 67° |
| 2026-05-06 11:49 | 42.20412 | 12.55953 | 37974 ft | 486 kts | 67° |
| 2026-05-06 11:50 | 42.23204 | 12.64226 | 38011 ft | 488 kts | 67° |
| 2026-05-06 11:50 | 42.26005 | 12.72551 | 38015 ft | 487 kts | 67° |
| 2026-05-06 11:51 | 42.28797 | 12.80873 | 38023 ft | 485 kts | 68° |
| 2026-05-06 11:51 | 42.31573 | 12.89175 | 38019 ft | 486 kts | 68° |
| 2026-05-06 11:52 | 42.34333 | 12.97458 | 38021 ft | 487 kts | 68° |
| 2026-05-06 11:52 | 42.37100 | 13.05784 | 38014 ft | 486 kts | 68° |
| 2026-05-06 11:53 | 42.38487 | 13.09966 | 37893 ft | 487 kts | 68° |
| 2026-05-06 11:53 | 42.39872 | 13.14149 | 37580 ft | 487 kts | 68° |
| 2026-05-06 11:53 | 42.41257 | 13.18338 | 37321 ft | 488 kts | 68° |
| 2026-05-06 11:53 | 42.42642 | 13.22535 | 37036 ft | 489 kts | 68° |
| 2026-05-06 11:54 | 42.44007 | 13.26691 | 36764 ft | 490 kts | 68° |
| 2026-05-06 11:54 | 42.45392 | 13.30906 | 36536 ft | 492 kts | 68° |
| 2026-05-06 11:54 | 42.46792 | 13.35163 | 36266 ft | 496 kts | 67° |
| 2026-05-06 11:54 | 42.48194 | 13.39431 | 35990 ft | 496 kts | 67° |
| 2026-05-06 11:55 | 42.49594 | 13.43706 | 35740 ft | 497 kts | 67° |
| 2026-05-06 11:55 | 42.50998 | 13.47998 | 35487 ft | 498 kts | 67° |
| 2026-05-06 11:55 | 42.52401 | 13.52297 | 35209 ft | 497 kts | 67° |
| 2026-05-06 11:55 | 42.53794 | 13.56569 | 34955 ft | 494 kts | 67° |
| 2026-05-06 11:56 | 42.55167 | 13.60790 | 34712 ft | 498 kts | 66° |
| 2026-05-06 11:56 | 42.56560 | 13.65083 | 34458 ft | 501 kts | 66° |
| 2026-05-06 11:56 | 42.57964 | 13.69412 | 34215 ft | 501 kts | 66° |
| 2026-05-06 11:56 | 42.59364 | 13.73737 | 33977 ft | 502 kts | 66° |
| 2026-05-06 11:57 | 42.60769 | 13.78080 | 33729 ft | 502 kts | 67° |
| 2026-05-06 11:57 | 42.62172 | 13.82422 | 33446 ft | 502 kts | 67° |
| 2026-05-06 11:57 | 42.63573 | 13.86771 | 33145 ft | 503 kts | 67° |
| 2026-05-06 11:57 | 42.64965 | 13.91096 | 32874 ft | 498 kts | 67° |
| 2026-05-06 11:58 | 42.66331 | 13.95349 | 32614 ft | 499 kts | 67° |
| 2026-05-06 11:58 | 42.67718 | 13.99676 | 32353 ft | 501 kts | 67° |
| 2026-05-06 11:58 | 42.69109 | 14.04021 | 32093 ft | 502 kts | 67° |
| 2026-05-06 11:58 | 42.70503 | 14.08384 | 31832 ft | 503 kts | 67° |
| 2026-05-06 11:59 | 42.71894 | 14.12742 | 31483 ft | 504 kts | 67° |
| 2026-05-06 11:59 | 42.73293 | 14.17134 | 30763 ft | 507 kts | 67° |
| 2026-05-06 11:59 | 42.74658 | 14.21423 | 30148 ft | 505 kts | 67° |
| 2026-05-06 11:59 | 42.75856 | 14.25194 | 29531 ft | 500 kts | 67° |
| 2026-05-06 12:00 | 42.77199 | 14.29426 | 28929 ft | 494 kts | 67° |
| 2026-05-06 12:00 | 42.78551 | 14.33691 | 28300 ft | 487 kts | 67° |
| 2026-05-06 12:00 | 42.79884 | 14.37906 | 27680 ft | 482 kts | 67° |
| 2026-05-06 12:00 | 42.81198 | 14.42070 | 27070 ft | 476 kts | 67° |
| 2026-05-06 12:01 | 42.82498 | 14.46195 | 26453 ft | 471 kts | 67° |
| 2026-05-06 12:01 | 42.83781 | 14.50272 | 25850 ft | 467 kts | 67° |
| 2026-05-06 12:01 | 42.85053 | 14.54321 | 25250 ft | 462 kts | 68° |
| 2026-05-06 12:01 | 42.86297 | 14.58284 | 24607 ft | 460 kts | 68° |
| 2026-05-06 12:02 | 42.87545 | 14.62269 | 24056 ft | 455 kts | 68° |
| 2026-05-06 12:02 | 42.88784 | 14.66230 | 23456 ft | 452 kts | 68° |
| 2026-05-06 12:02 | 42.90010 | 14.70149 | 22827 ft | 446 kts | 68° |
| 2026-05-06 12:02 | 42.91214 | 14.74006 | 22250 ft | 439 kts | 68° |
| 2026-05-06 12:03 | 42.92395 | 14.77795 | 21668 ft | 433 kts | 68° |
| 2026-05-06 12:03 | 42.93562 | 14.81549 | 21095 ft | 428 kts | 68° |
| 2026-05-06 12:03 | 42.94715 | 14.85263 | 20527 ft | 423 kts | 68° |
| 2026-05-06 12:03 | 42.95839 | 14.88888 | 19971 ft | 418 kts | 68° |
| 2026-05-06 12:04 | 42.96965 | 14.92521 | 19411 ft | 414 kts | 68° |
| 2026-05-06 12:04 | 42.98079 | 14.96122 | 18864 ft | 409 kts | 68° |
| 2026-05-06 12:04 | 42.99005 | 14.99114 | 18378 ft | 407 kts | 68° |
| 2026-05-06 12:04 | 43.00097 | 15.02657 | 17636 ft | 398 kts | 69° |
| 2026-05-06 12:05 | 43.00927 | 15.06438 | 16015 ft | 424 kts | 76° |
| 2026-05-06 12:05 | 43.01840 | 15.10150 | 15934 ft | 405 kts | 67° |
| 2026-05-06 12:05 | 43.03036 | 15.13564 | 15692 ft | 391 kts | 64° |
| 2026-05-06 12:05 | 43.04222 | 15.16796 | 15453 ft | 383 kts | 64° |
| 2026-05-06 12:06 | 43.05394 | 15.20081 | 15082 ft | 388 kts | 62° |
| 2026-05-06 12:06 | 43.06877 | 15.23170 | 14558 ft | 389 kts | 53° |
| 2026-05-06 12:06 | 43.08477 | 15.26144 | 14025 ft | 386 kts | 53° |
| 2026-05-06 12:06 | 43.10057 | 15.29091 | 13460 ft | 382 kts | 54° |
| 2026-05-06 12:07 | 43.11603 | 15.31998 | 12944 ft | 376 kts | 54° |
| 2026-05-06 12:07 | 43.13125 | 15.34880 | 12437 ft | 371 kts | 54° |
| 2026-05-06 12:07 | 43.14622 | 15.37730 | 11917 ft | 366 kts | 54° |
| 2026-05-06 12:07 | 43.16098 | 15.40546 | 11446 ft | 361 kts | 55° |
| 2026-05-06 12:08 | 43.17552 | 15.43325 | 10967 ft | 357 kts | 55° |
| 2026-05-06 12:08 | 43.18972 | 15.46039 | 10490 ft | 354 kts | 55° |
| 2026-05-06 12:08 | 43.20391 | 15.48753 | 10219 ft | 343 kts | 55° |
| 2026-05-06 12:08 | 43.21750 | 15.51355 | 10094 ft | 329 kts | 55° |
| 2026-05-06 12:09 | 43.22995 | 15.53741 | 9919 ft | 318 kts | 56° |
| 2026-05-06 12:09 | 43.24263 | 15.56175 | 9729 ft | 308 kts | 56° |
| 2026-05-06 12:09 | 43.25497 | 15.58548 | 9464 ft | 304 kts | 56° |
| 2026-05-06 12:09 | 43.26716 | 15.60893 | 9111 ft | 301 kts | 56° |
| 2026-05-06 12:10 | 43.27908 | 15.63185 | 8779 ft | 297 kts | 56° |
| 2026-05-06 12:10 | 43.29095 | 15.65470 | 8456 ft | 292 kts | 56° |
| 2026-05-06 12:10 | 43.29980 | 15.67921 | 8120 ft | 283 kts | 81° |
| 2026-05-06 12:10 | 43.30002 | 15.70534 | 7801 ft | 269 kts | 109° |
| 2026-05-06 12:11 | 43.29192 | 15.72747 | 7524 ft | 255 kts | 135° |
| 2026-05-06 12:11 | 43.27920 | 15.74450 | 7267 ft | 266 kts | 140° |
| 2026-05-06 12:11 | 43.26533 | 15.76273 | 7171 ft | 281 kts | 141° |
| 2026-05-06 12:11 | 43.25223 | 15.78271 | 7045 ft | 285 kts | 126° |
| 2026-05-06 12:12 | 43.24567 | 15.80833 | 6764 ft | 292 kts | 101° |
| 2026-05-06 12:12 | 43.24774 | 15.83596 | 6441 ft | 293 kts | 74° |
| 2026-05-06 12:12 | 43.25766 | 15.85952 | 5929 ft | 292 kts | 50° |
| 2026-05-06 12:12 | 43.27263 | 15.87896 | 5377 ft | 297 kts | 41° |
| 2026-05-06 12:13 | 43.28831 | 15.89670 | 5270 ft | 288 kts | 41° |
| 2026-05-06 12:13 | 43.30330 | 15.91449 | 5012 ft | 285 kts | 44° |
| 2026-05-06 12:13 | 43.31796 | 15.93313 | 4442 ft | 291 kts | 47° |
| 2026-05-06 12:13 | 43.33211 | 15.95222 | 4109 ft | 288 kts | 48° |
| 2026-05-06 12:14 | 43.34612 | 15.97159 | 3921 ft | 283 kts | 49° |
| 2026-05-06 12:14 | 43.36010 | 15.99094 | 3597 ft | 286 kts | 50° |
| 2026-05-06 12:14 | 43.37392 | 16.00962 | 3493 ft | 279 kts | 47° |
| 2026-05-06 12:14 | 43.38748 | 16.02809 | 3398 ft | 268 kts | 53° |
| 2026-05-06 12:15 | 43.39925 | 16.04705 | 3281 ft | 255 kts | 57° |
| 2026-05-06 12:15 | 43.40979 | 16.06586 | 3187 ft | 242 kts | 58° |
| 2026-05-06 12:15 | 43.41966 | 16.08349 | 3024 ft | 224 kts | 59° |
| 2026-05-06 12:15 | 43.42899 | 16.10032 | 2999 ft | 226 kts | 60° |
| 2026-05-06 12:16 | 43.43842 | 16.11724 | 2993 ft | 219 kts | 59° |
| 2026-05-06 12:16 | 43.44770 | 16.13390 | 2850 ft | 224 kts | 59° |
| 2026-05-06 12:16 | 43.45705 | 16.15067 | 2511 ft | 217 kts | 58° |
| 2026-05-06 12:16 | 43.46578 | 16.16624 | 2263 ft | 193 kts | 63° |
| 2026-05-06 12:17 | 43.47347 | 16.18006 | 1984 ft | 175 kts | 63° |
| 2026-05-06 12:17 | 43.48107 | 16.19395 | 1778 ft | 184 kts | 62° |
| 2026-05-06 12:17 | 43.48882 | 16.20741 | 1491 ft | 174 kts | 61° |
| 2026-05-06 12:17 | 43.49577 | 16.22005 | 1280 ft | 155 kts | 58° |
| 2026-05-06 12:18 | 43.50193 | 16.23124 | 1063 ft | 137 kts | 58° |
| 2026-05-06 12:18 | 43.50589 | 16.23779 | 866 ft | 132 kts | 55° |
| 2026-05-06 12:18 | 43.51339 | 16.25054 | 723 ft | 135 kts | 65° |
| 2026-05-06 12:18 | 43.51858 | 16.26088 | 512 ft | 131 kts | 63° |
| 2026-05-06 12:19 | 43.52383 | 16.27049 | 363 ft | 127 kts | 61° |
| 2026-05-06 12:19 | 43.52901 | 16.28012 | 252 ft | 126 kts | 60° |
| 2026-05-06 12:19 | 43.53431 | 16.28956 | 94 ft | 119 kts | 59° |
| 2026-05-06 12:19 | 43.53836 | 16.29695 | 74 ft | 59 kts | 51° |
| 2026-05-06 12:20 | 43.53919 | 16.29843 | 64 ft | 5 kts | 53° |
| 2026-05-06 12:20 | 43.53984 | 16.29962 | 67 ft | 34 kts | 53° |
| 2026-05-06 12:20 | 43.54044 | 16.30090 | 62 ft | 11 kts | 102° |
| 2026-05-06 12:20 | 43.54035 | 16.30107 | 57 ft | 1 kts | 137° |
| 2026-05-06 12:21 | 43.54025 | 16.30110 | 60 ft | 1 kts | 165° |
| 2026-05-06 12:21 | 43.53977 | 16.30085 | 56 ft | 1 kts | 213° |
| 2026-05-06 12:21 | 43.53942 | 16.30073 | 62 ft | 0 kts | 189° |
| 2026-05-06 12:22 | 43.53894 | 16.30039 | 62 ft | 9 kts | 226° |
| 2026-05-06 12:22 | 43.53803 | 16.29876 | 68 ft | 19 kts | 232° |
| 2026-05-06 12:23 | 43.53786 | 16.29847 | 64 ft | 2 kts | 231° |
| 2026-05-06 12:23 | 43.53766 | 16.29813 | 65 ft | 7 kts | 224° |
| 2026-05-06 12:23 | 43.53738 | 16.29844 | 65 ft | 7 kts | 110° |
| 2026-05-06 12:23 | 43.53729 | 16.29873 | 65 ft | 4 kts | 113° |
| 2026-05-06 12:24 | 43.53728 | 16.29876 | 66 ft | 0 kts | 113° |